Rudloph 5K & 10K

Age Group Results

December 06, 2014


Results By Run Wild Sports Timing Inc(results questions? gmulvihill@aol.com)


5K Men: Top Finishers 0-17 18-29 30-39 40-49 50-59 60-69
5K Women: Top Finishers 0-17 18-29 30-39 40-49 50-59 60-69 70-98 99-99
10K Men: Top Finishers 0-17 18-29 30-39 40-49 50-59 60-69
10K Women: Top Finishers 0-17 18-29 30-39 40-49 50-59 60-69

5K

Top

Female Open Winners

Place Name City Bib No Age Overall Time Back Chip Time Gun Time Pace
1 Ann Morris Houston TEXAS 51 50 7   24:26.1 24:26.1 7:52/M
Top

Male Open Winners

Place Name City Bib No Age Overall Time Back Chip Time Gun Time Pace
1 Brian Golden Katy TEXAS 200 19 1   20:33.3 20:33.3 6:37/M
Top

Female 17 and Under

Place Name City Bib No Age Overall Time Back Chip Time Gun Time Pace
1 Katie Straub Sugar Land TEXAS 265 13 6   24:23.6 24:32.7 7:52/M
2 Anna Chaikin Cypress TX 170 10 14 2:11.3 26:34.9 26:38.4 8:34/M
3 Laura Jones Houston TEXAS 217 0 28 5:21.9 29:45.6 30:16.3 9:36/M
4 Andie Hilberth Houton TEXAS 210 11 45 7:25.5 31:49.2 32:02.3 10:16/M
5 Savannah Moreno Cypress TEXAS 237 11 64 12:18.8 36:42.4 37:04.5 11:50/M
6 Riley Darnell Cypress TEXAS 176 9 86 16:43.0 41:06.7 41:13.4 13:15/M
7 Cadence Wooden Cypress TEXAS 277 8 99 20:52.7 45:16.4 46:06.3 14:36/M
8 Angel Klein Houston TEXAS 222 11 116 37:20.3 1:01:44.0 1:02:38.0 19:55/M
Top

Male 17 and Under

Place Name City Bib No Age Overall Time Back Chip Time Gun Time Pace
1 Lauge Rasmussen Houston TEXAS 250 11 2   20:43.8 20:48.3 6:41/M
2 Cameron Ramsay Houston TEXAS 248 12 5 3:24.0 24:07.9 24:14.8 7:47/M
3 Anthony Gross Cypress TEXAS 205 12 15 6:06.4 26:50.2 27:14.9 8:39/M
4 Caleb Prince Sealy TEXAS 247 16 17 6:32.9 27:16.8 27:45.7 8:48/M
5 Lukas Lentz Sugar Land TEXAS 227 7 33 9:35.2 30:19.1 30:40.3 9:47/M
6 Jason Garcia Houston TEXAS 195 12 38 10:00.8 30:44.6 31:37.6 9:55/M
7 Pierce Young Houston TEXAS 282 13 39 10:01.6 30:45.5 31:38.4 9:55/M
8 Patrick Dunn Cypress TEXAS 183 7 43 10:19.3 31:03.1 31:09.7 10:01/M
9 Collin Bass Cypress TEXAS 164 13 44 10:19.7 31:03.5 31:10.0 10:01/M
10 Thomas Dunn Cypress TEXAS 184 9 49 12:52.1 33:35.9 33:51.0 10:50/M
11 Spencer McGown Cypress TEXAS 233 12 55 14:41.4 35:25.3 35:49.7 11:25/M
12 Deivis Suastegui Houston TEXAS 266 12 78 18:59.9 39:43.7 40:33.9 12:49/M
13 Steven Torres Houston TEXAS 268 12 79 19:11.0 39:54.8 40:39.6 12:52/M
14 Fabian Solis Houston TEXAS 262 12 82 19:41.0 40:24.8 41:15.7 13:02/M
15 Mark Martinez Houston TEXAS 231 11 93 21:41.8 42:25.6 43:10.9 13:41/M
16 Steven Granados Houston TEXAS 203 13 94 21:44.5 42:28.4 43:13.7 13:42/M
17 Hiram Diaz Rodriguez Houston TEXAS 254 11 112 30:41.4 51:25.3 52:10.6 16:35/M
18 M Howard 289 11 118 99:39:16.1 25:11.7
19 Jackson Howard 295 14 119 99:39:16.1 32:44.6
Top

Female 18 to 29

Place Name City Bib No Age Overall Time Back Chip Time Gun Time Pace
1 Erin Coleman Sugar Land TEXAS 173 19 18   28:00.5 28:16.4 9:02/M
2 Clena Abuan Houston TEXAS 159 29 19 0:02.4 28:03.0 28:11.3 9:03/M
3 Shelly Dodson Sugar Land TEXAS 293 28 27 1:00.5 29:01.1 29:12.2 9:22/M
4 Kate Murphy Houston TEXAS 239 25 31 2:07.6 30:08.2 30:27.2 9:43/M
5 Christina Stevenson Sugar Land TEXAS 283 26 54 6:48.1 34:48.6 34:58.9 11:14/M
6 Kimberly Fritz Katy TEXAS 194 23 57 7:29.7 35:30.2 36:18.3 11:27/M
7 Caitlin Turner Houston TEXAS 288 25 65 8:45.1 36:45.7 36:53.2 11:51/M
8 Katie Lowe Houston TEXAS 229 24 70 9:25.3 37:25.9 37:54.1 12:04/M
9 Crystal Cabrera Houston TEXAS 168 26 102 18:17.8 46:18.3 46:30.4 14:56/M
10 Holli Fitzpatrick Cypress TEXAS 191 26 107 19:21.3 47:21.8 48:03.1 15:16/M
11 Kristen Rover Magnolia TEXAS 257 28 117 35:16.1 1:03:16.6 1:03:55.3 20:25/M
Top

Male 18 to 29

Place Name City Bib No Age Overall Time Back Chip Time Gun Time Pace
1 Nathan Cleavinger Baytown TEXAS 22 18 4   22:51.6 23:16.1 7:22/M
2 Will Derrick Houston TEXAS 177 24 10 2:15.7 25:07.4 25:35.4 8:06/M
3 Justin Gonzales Sugar Land TEXAS 284 28 40 7:57.4 30:49.1 30:59.7 9:56/M
4 Chris Leanox Houston TEXAS 226 25 92 19:32.3 42:24.0 42:34.1 13:41/M
5 Evan Lester Sugar Land TEXAS 294 28 95 19:41.1 42:32.8 42:45.0 13:43/M
Top

Female 30 to 39

Place Name City Bib No Age Overall Time Back Chip Time Gun Time Pace
1 Taushah Falco Houston TEXAS 189 31 11   25:57.5 26:00.6 8:22/M
2 Andrea Johnson Conroe TEXAS 75 33 16 1:12.0 27:09.5 27:33.3 8:45/M
3 Melissa Young Houston TEXAS 273 33 20 2:05.7 28:03.2 28:11.4 9:03/M
4 Jeannine Edwards Houston TEXAS 42 35 25 2:30.6 28:28.2 28:31.6 9:11/M
5 Crystal Cole Houston TEXAS 172 39 32 4:13.3 30:10.8 30:22.9 9:44/M
6 Erica Chaikin Cypress TX 171 39 46 6:43.9 32:41.4 32:54.5 10:33/M
7 Holly Eubanks Cypress TX 187 31 47 6:44.1 32:41.7 32:54.8 10:33/M
8 Jane Dunn Cypress TEXAS 182 36 50 7:38.4 33:36.0 33:51.3 10:50/M
9 Beverly Jones Katy TEXAS 216 36 51 7:42.4 33:39.9 34:07.8 10:51/M
10 Carrie Kienenberger Houston TEXAS 221 38 71 11:43.0 37:40.5 38:21.5 12:09/M
11 Christina Nardini Bryan TEXAS 241 30 72 11:55.5 37:53.0 38:18.3 12:13/M
12 Valerie Hopkins Houston TEXAS 213 33 76 12:31.4 38:28.9 38:40.4 12:25/M
13 Corlinda Wooden Cypress TEXAS 278 34 81 14:25.3 40:22.9 41:22.1 13:01/M
14 Lanny Hayes Houston TEXAS 208 34 98 18:46.7 44:44.2 44:58.8 14:26/M
15 Tiffany Ghrist Houston TEXAS 197 33 103 20:21.0 46:18.6 46:29.3 14:56/M
16 Jenna Murphy Solution TEXAS 238 30 104 20:24.9 46:22.5 46:37.4 14:57/M
17 Whitney Bretzke Houston TEXAS 158 31 109 21:44.8 47:42.3 48:15.5 15:23/M
18 Melody Hall Houston TEXAS 207 33 113 28:56.3 54:53.9 55:12.1 17:42/M
Top

Male 30 to 39

Place Name City Bib No Age Overall Time Back Chip Time Gun Time Pace
1 Christopher Ganim Cypress TX 46 31 26   28:28.2 28:31.7 9:11/M
2 Corrin Duarte Houston TEXAS 181 36 73 9:32.9 38:01.2 38:12.7 12:16/M
3 Noe Ballesa Houston TEXAS 161 34 90 13:49.7 42:18.0 42:33.6 13:39/M
4 Ricardo White Houston TEXAS 270 38 91 13:54.1 42:22.4 42:36.5 13:40/M
5 Howard Tseng Houston TEXAS 269 35 96 14:24.3 42:52.6 43:22.0 13:50/M
6 Brett Wooden Cypress TEXAS 276 35 100 16:54.5 45:22.8 46:13.3 14:38/M
Top

Female 40 to 49

Place Name City Bib No Age Overall Time Back Chip Time Gun Time Pace
1 Sofie Jensen Houston TEXAS 215 45 24   28:23.0 28:28.5 9:09/M
2 Lorelei Isaac Houston TX 73 44 29 1:27.6 29:50.7 30:23.2 9:37/M
3 Nicole Paez Cypress TEXAS 243 43 30 1:38.1 30:01.2 30:14.4 9:41/M
4 Kat Gorringe Houston TEXAS 202 45 34 2:00.6 30:23.7 30:35.5 9:48/M
5 Jayne Laird Cypress TEXAS 223 48 35 2:01.1 30:24.2 30:35.5 9:48/M
6 Kay Hilberth Houton TEXAS 211 47 41 2:35.1 30:58.1 31:11.9 9:59/M
7 Becca Howard 256 48 42 2:35.5 30:58.6 31:13.9 9:59/M
8 Melissa Hall Friendswood TEXAS 206 45 52 6:12.3 34:35.4 35:05.6 11:09/M
9 Marilou Priess Houston TEXAS 246 40 58 7:07.8 35:30.8 36:03.2 11:27/M
10 Sara Dingwall Houston TEXAS 180 42 59 7:29.6 35:52.7 36:17.6 11:34/M
11 Tatum Wray Houston TEXAS 281 43 68 8:45.8 37:08.8 37:52.7 11:59/M
12 Mary Robles Cypress TEXAS 253 46 69 8:49.2 37:12.3 37:38.5 12:00/M
13 Laura Crain Kingwood TX 174 46 74 9:54.9 38:17.9 38:40.2 12:21/M
14 Karen Ramsay Houston TEXAS 249 44 83 12:13.3 40:36.4 41:15.3 13:06/M
15 Leah Greene Houston TEXAS 292 42 84 12:21.9 40:45.0 41:12.6 13:09/M
16 Kelly Kearley Cypress TX 219 42 87 12:49.7 41:12.8 41:22.2 13:17/M
17 Bonnie Hebert Mancus Cypress TEXAS 163 42 88 13:13.4 41:36.5 41:50.0 13:25/M
18 Tara Wray Houston TEXAS 280 43 106 18:52.1 47:15.2 47:59.9 15:15/M
19 Jody Pollos Houston TEXAS 244 49 114 29:42.7 58:05.8 58:25.9 18:44/M
20 Cindy Diamantaras Houston TEXAS 178 44 115 29:46.8 58:09.8 58:29.5 18:45/M
Top

Male 40 to 49

Place Name City Bib No Age Overall Time Back Chip Time Gun Time Pace
1 Tim Howard 299 48 3   22:23.5 22:35.5 7:13/M
2 Alan Nguyen Kyle TEXAS 242 49 12 3:47.7 26:11.3 26:47.7 8:27/M
3 Damon Diamantaras Houston TEXAS 179 44 21 5:40.2 28:03.8 28:15.1 9:03/M
4 Cullen Gibbs Katy TEXAS 198 44 22 5:43.9 28:07.5 28:24.3 9:04/M
5 Jerald McClendon Houston TEXAS 232 48 23 5:48.3 28:11.8 28:22.3 9:05/M
6 Erick Moreno Cypress TEXAS 236 42 36 8:09.4 30:32.9 30:55.1 9:51/M
7 Rob Jones Houston TEXAS 218 43 37 8:12.6 30:36.2 30:46.1 9:52/M
8 Stephen Myles Houston TEXAS 240 44 66 14:28.9 36:52.4 37:03.3 11:54/M
9 Evan Wray Houston TEXAS 279 43 105 24:51.5 47:15.0 48:00.1 15:15/M
10 Tony Marney Houston TEXAS 230 45 110 26:42.0 49:05.6 49:25.6 15:50/M
Top

Female 50 to 59

Place Name City Bib No Age Overall Time Back Chip Time Gun Time Pace
1 Lisa Hoefer Cypress TEXAS 212 52 48   32:46.5 33:06.7 10:34/M
2 Kelly Prewitt Cypress TEXAS 245 51 53 2:00.7 34:47.3 35:14.6 11:13/M
3 Stella Olivier Houston TEXAS 286 51 61 3:11.9 35:58.4 36:06.5 11:36/M
4 Rosibel Estopinal Houton TEXAS 186 52 67 4:21.2 37:07.7 37:45.5 11:58/M
5 Cathy Lawdanski Tomball TEXAS 224 56 75 5:39.4 38:25.9 38:58.8 12:24/M
6 Karen Stacey Cypress TEXAS 263 58 89 8:51.4 41:37.9 42:01.4 13:25/M
7 Donna Fitzpatrick Cypress TEXAS 190 54 108 14:40.4 47:27.0 48:10.0 15:18/M
8 Patty Kelley Houston TEXAS 220 58 111 16:21.0 49:07.5 49:25.8 15:51/M
Top

Male Age 50 to 59

Place Name City Bib No Age Overall Time Back Chip Time Gun Time Pace
1 Richard Fitzpatrick Cypress TEXAS 192 55 13   26:25.9 26:33.5 8:31/M
2 Keith Head Houston TX 209 57 56 9:03.1 35:29.0 36:26.6 11:27/M
3 Errol Olivier Houston TEXAS 285 52 60 9:32.2 35:58.1 36:06.2 11:36/M
4 Art Robles Cypress TEXAS 252 51 63 10:15.4 36:41.4 37:07.9 11:50/M
5 Bill Darnell Cypress TEXAS 175 55 85 14:39.7 41:05.7 41:12.6 13:15/M
Top

Female 60 to 69

Place Name City Bib No Age Overall Time Back Chip Time Gun Time Pace
1 Vicki Altizer Cypress TEXAS 160 67 80   40:05.6 40:41.4 12:56/M
2 Mary Frazee Cypress TEXAS 193 66 97 3:33.2 43:38.8 43:53.2 14:05/M
Top

Male 60 to 69

Place Name City Bib No Age Overall Time Back Chip Time Gun Time Pace
1 Shelby Wilson Cypress TEXAS 271 68 101   46:14.5 46:40.7 14:55/M
Top

Female 70 +

Place Name City Bib No Age Overall Time Back Chip Time Gun Time Pace
1 Barbara Glenn Houston TEXAS 199 70 62   36:13.3 36:32.6 11:41/M
Top

unknown

Place Name City Bib No Age Overall Time Back Chip Time Gun Time Pace
1 Christian Negrette Houston TEXAS 297 99 8   24:45.2 25:49.8 7:59/M
2 Hanna Zasadil Houston TEXAS 296 99 9 0:01.2 24:46.5 25:51.5 7:59/M
3 Christie Goodson 300 99 77 14:04.4 38:49.7 39:16.5 12:31/M
 

10K

Top

Female Open Winners

Place Name City Bib No Age Overall Time Back Chip Time Gun Time Pace
1 Grace Lindwall Montgomery TX 94 23 3   43:55.3 43:55.3 7:05/M
Top

Male Open Winners

Place Name City Bib No Age Overall Time Back Chip Time Gun Time Pace
1 Bryan Lewis Houston TX 93 39 1   40:00.1 40:00.1 6:27/M
Top

Female 17 and Under

Place Name City Bib No Age Overall Time Back Chip Time Gun Time Pace
1 Amanda Bippus Katy TEXAS 9 14 39   58:23.5 58:26.3 9:25/M
2 Kylie Weeks Katy TEXAS 149 10 105 16:45.1 1:15:08.7 1:15:20.4 12:07/M
Top

Male 17 and Under

Place Name City Bib No Age Overall Time Back Chip Time Gun Time Pace
1 Benjamin McConville Katy TEXAS 102 12 70   1:04:26.1 1:04:47.1 10:24/M
Top

Female 18 to 29

Place Name City Bib No Age Overall Time Back Chip Time Gun Time Pace
1 Macy Markwell Katy TEXAS 99 19 5   44:46.7 44:50.8 7:13/M
2 Davina Morrow Houston TEXAS 110 23 19 6:51.1 51:37.8 51:42.4 8:20/M
3 Reagan Collins Houston TEXAS 23 26 20 6:52.3 51:39.0 51:39.5 8:20/M
4 Kristin Pasket Houston TEXAS 117 22 22 7:04.6 51:51.4 52:07.1 8:22/M
5 Lily Pfeifer Houston TEXAS 120 24 29 10:36.2 55:22.9 55:23.4 8:56/M
6 Alexis Comardo Houston TEXAS 25 28 30 10:58.4 55:45.1 56:05.4 9:00/M
7 Anna Williamson Houston TEXAS 152 29 44 14:04.5 58:51.2 59:11.3 9:30/M
8 Sarah Beth Day Houston TEXAS 30 22 46 14:17.6 59:04.3 59:18.3 9:32/M
9 Stephanie Sallee Houston TEXAS 134 28 49 15:18.2 1:00:05.0 1:00:08.7 9:41/M
10 Leslie Wrightsman Houston TX 155 24 51 15:19.4 1:00:06.2 1:00:08.3 9:42/M
11 Johanna Descallar Cypress TEXAS 37 29 58 16:42.7 1:01:29.4 1:01:53.9 9:55/M
12 Victoria Dao Houston TEXAS 29 26 64 17:39.2 1:02:25.9 1:02:27.1 10:04/M
13 Jill Hudgens Katy TEXAS 69 25 66 18:17.1 1:03:03.9 1:03:20.8 10:10/M
14 Meagan Romero Baytown TEXAS 132 23 75 20:20.7 1:05:07.4 1:05:14.8 10:30/M
15 Casey Timme Kingwood TEXAS 147 29 87 23:15.0 1:08:01.8 1:08:42.0 10:58/M
16 Nicole Chiles Montgomery TEXAS 20 23 95 24:55.3 1:09:42.0 1:10:16.1 11:15/M
17 Lilliam Soto Houston TEXAS 139 24 101 27:13.8 1:12:00.5 1:12:07.2 11:37/M
18 Tracy Delossantos Houston TEXAS 32 26 102 27:59.5 1:12:46.2 1:13:39.0 11:44/M
19 Tia Savannah Houston TEXAS 135 29 104 29:28.5 1:14:15.2 1:14:43.5 11:59/M
20 Amanda Flores Houston TEXAS 45 25 112 32:51.1 1:17:37.9 1:17:49.6 12:31/M
21 Megan Callahan Houston TEXAS 15 25 115 34:00.7 1:18:47.5 1:19:07.9 12:42/M
22 Taylor Langhamer Houston TEXAS 91 28 118 35:05.2 1:19:51.9 1:20:17.2 12:53/M
23 Lisa Witkowski Houston TEXAS 154 29 119 35:06.1 1:19:52.8 1:20:18.4 12:53/M
24 Sarah Dinger Houston TEXAS 38 26 120 35:12.7 1:19:59.5 1:20:21.5 12:54/M
25 Danielle Hamilton Houston TEXAS 59 25 122 35:13.4 1:20:00.1 1:20:21.2 12:54/M
26 Rebekah Springer Katy TEXAS 142 26 123 37:31.1 1:22:17.8 1:22:54.4 13:16/M
27 Abigail Geisler Missouri City TEXAS 50 18 124 41:27.1 1:26:13.8 1:26:48.5 13:54/M
Top

Male 18 to 29

Place Name City Bib No Age Overall Time Back Chip Time Gun Time Pace
1 Kevin Reid Houston TEXAS 124 22 6   45:23.6 45:32.1 7:19/M
2 Trey Sessums Houston TEXAS 298 19 9 1:44.3 47:07.9 47:24.0 7:36/M
3 Kurt Kienast Houston TEXAS 82 25 10 1:50.8 47:14.4 47:59.8 7:37/M
4 Clayton Johnson Houston TEXAS 76 26 11 3:33.7 48:57.4 48:58.7 7:54/M
5 Aaron Ragusa Houston TEXAS 123 24 16 4:50.8 50:14.4 50:27.5 8:06/M
6 Tyler Collins Houston TEXAS 24 28 17 5:55.3 51:19.0 51:19.6 8:17/M
7 David Cleavinger Baytown TEXAS 21 23 25 8:39.2 54:02.8 54:03.9 8:43/M
8 Matthew Estrada Houston TEXAS 43 26 26 9:29.5 54:53.1 55:08.9 8:51/M
9 Andrew Hradecky Katy TEXAS 68 29 27 9:33.6 54:57.2 55:07.9 8:52/M
10 Cullen Avidan Houston TEXAS 3 25 38 12:59.4 58:23.1 58:29.4 9:25/M
11 Ritchie Pena Tomball TEXAS 118 24 61 16:25.0 1:01:48.6 1:02:11.9 9:58/M
12 Richard Nguyen Houston TEXAS 112 27 63 17:02.1 1:02:25.7 1:02:27.0 10:04/M
13 Tyler Sullivan Houston TEXAS 145 25 65 17:29.7 1:02:53.4 1:03:05.5 10:09/M
14 Neal Springer Katy TEXAS 141 26 72 19:15.2 1:04:38.9 1:05:15.2 10:25/M
15 Dave Hughes Houston TEXAS 70 26 73 19:20.3 1:04:44.0 1:04:57.9 10:26/M
16 Michael Mawdsley Round Rock TEXAS 100 24 78 19:51.6 1:05:15.2 1:05:39.1 10:31/M
17 Tyler Young Houston TEXAS 156 25 80 20:55.8 1:06:19.4 1:06:26.4 10:42/M
Top

Female 30 to 39

Place Name City Bib No Age Overall Time Back Chip Time Gun Time Pace
1 Megan Scheff Houston TEXAS 136 31 4   44:44.0 44:48.6 7:13/M
2 Corie Squyres Katy TEXAS 143 33 32 11:24.4 56:08.5 56:17.5 9:03/M
3 Elizabeth Smith Houston TEXAS 138 38 33 11:26.3 56:10.3 56:20.7 9:04/M
4 Erin Montoya Katy TEXAS 107 34 41 13:53.7 58:37.8 58:46.6 9:27/M
5 Velda Reina Katy TEXAS 125 38 42 13:59.1 58:43.2 59:07.2 9:28/M
6 Kristen Mann Katy TEXAS 98 33 47 15:06.6 59:50.6 1:00:26.7 9:39/M
7 Wendy Gray Richmond TEXAS 55 36 48 15:08.1 59:52.1 59:55.4 9:39/M
8 Naomi Dalton-Sajadi Houston TEXAS 28 33 50 15:21.0 1:00:05.1 1:00:08.9 9:41/M
9 Candace Kessel Houston TEXAS 81 30 54 16:00.9 1:00:45.0 1:00:49.9 9:48/M
10 Rebecca Bennett Houston TEXAS 8 34 56 16:18.0 1:01:02.1 1:01:11.8 9:51/M
11 Shelley Landry Houston TEXAS 89 34 57 16:37.3 1:01:21.4 1:01:27.1 9:54/M
12 Yinka Popoola Houston TEXAS 121 38 59 16:54.0 1:01:38.0 1:01:55.0 9:56/M
13 Brandi Bashor Lancaster NY 6 36 67 18:23.6 1:03:07.6 1:03:20.6 10:11/M
14 Lindsay Charbonneau Tomball TEXAS 19 34 74 20:14.1 1:04:58.2 1:05:02.4 10:29/M
15 Ashley Hall Dallas TEXAS 287 34 81 21:55.6 1:06:39.7 1:07:08.1 10:45/M
16 Wendi Junod Tomball TEXAS 78 37 82 21:56.4 1:06:40.5 1:07:08.6 10:45/M
17 Vanessa King Houston TEXAS 83 37 83 22:03.7 1:06:47.7 1:06:57.0 10:46/M
18 Jenise Livesay Victoria TEXAS 95 36 84 22:04.5 1:06:48.5 1:07:18.4 10:46/M
19 Kim Stockton Houston TEXAS 144 35 85 22:06.7 1:06:50.8 1:07:18.0 10:47/M
20 Amanda Austin Cypress TEXAS 1 39 90 24:04.5 1:08:48.5 1:09:08.1 11:06/M
21 Alysia West Cypress TEXAS 151 37 91 24:05.0 1:08:49.1 1:09:08.4 11:06/M
22 Nikki Blanchard Katy TEXAS 10 36 92 24:26.1 1:09:10.1 1:09:19.4 11:09/M
23 Michelle Howie Katy TEXAS 67 36 93 24:27.9 1:09:11.9 1:09:20.6 11:10/M
24 Heather Rimato-Morrison Pearland TEXAS 128 38 94 24:44.3 1:09:28.3 1:10:01.4 11:12/M
25 Kendra Jacobsen Tomball TEXAS 74 37 103 28:22.5 1:13:06.6 1:13:29.6 11:47/M
26 Kristin Gregg Housotn TEXAS 56 37 106 30:37.4 1:15:21.4 1:15:44.4 12:09/M
27 Kristen Kirk Cypress TEXAS 84 32 107 30:37.4 1:15:21.5 1:15:43.1 12:09/M
28 Melissa Geisier Missouri City TEXAS 49 37 110 31:28.8 1:16:12.8 1:16:36.8 12:17/M
29 Ashley Oulds Houston TEXAS 115 31 111 31:45.9 1:16:29.9 1:16:58.1 12:20/M
30 Rafaela Prince Sealy TEXAS 122 38 121 35:15.5 1:19:59.5 1:20:30.3 12:54/M
Top

Male 30 to 39

Place Name City Bib No Age Overall Time Back Chip Time Gun Time Pace
1 Antonio Lopez Hurst TEXAS 96 31 2   40:12.3 40:12.4 6:29/M
2 David Harvey Sugarland TEXAS 62 35 7 5:33.0 45:45.3 45:46.1 7:23/M
3 Adam Housel Tomball TEXAS 66 31 12 9:05.1 49:17.5 49:23.4 7:57/M
4 Seth Landtry Houston TEXAS 90 34 13 9:18.4 49:30.8 49:34.7 7:59/M
5 Chris Charbonneau Tomball TEXAS 18 34 21 11:31.7 51:44.1 51:47.8 8:21/M
6 Stephen Dinger Houston TEXAS 39 31 24 13:44.7 53:57.0 53:58.7 8:42/M
7 George Kubove Houston TEXAS 87 33 34 16:20.8 56:33.2 56:44.2 9:07/M
8 Alan Bell Houston TEXAS 7 34 35 16:40.4 56:52.8 57:10.2 9:10/M
9 Francisco Montoya Katy TEXAS 108 33 108 35:24.2 1:15:36.5 1:15:46.6 12:12/M
10 Javier Duarte Houston TEXAS 41 39 109 35:57.0 1:16:09.4 1:16:15.4 12:17/M
Top

Female 40 to 49

Place Name City Bib No Age Overall Time Back Chip Time Gun Time Pace
1 Nicole Derby Houston TEXAS 36 42 18   51:35.8 51:55.0 8:19/M
2 Lorena Gallardo Houston TX 109 47 28 3:24.0 54:59.9 55:01.8 8:52/M
3 Amy Shields Pearland TEXAS 137 40 31 4:20.6 55:56.5 56:09.4 9:01/M
4 Mee Gim Houston TX 53 46 36 6:04.9 57:40.8 57:45.2 9:18/M
5 Holly Gross Cypress TEXAS 58 45 43 7:12.0 58:47.9 59:09.3 9:29/M
6 Karen MacLennan Houston TEXAS 97 43 45 7:17.8 58:53.7 59:17.7 9:30/M
7 Andrea Deo Katy TEXAS 34 40 52 8:35.7 1:00:11.5 1:00:26.7 9:42/M
8 Teresa Levine Cypress TEXAS 92 47 53 9:05.8 1:00:41.7 1:00:54.6 9:47/M
9 Lisa Kandala Houston TEXAS 79 40 62 10:30.8 1:02:06.7 1:02:16.5 10:01/M
10 Melanie Airey Houston TEXAS 274 42 69 12:37.8 1:04:13.7 1:04:21.9 10:21/M
11 Holly Romero Sweeny TEXAS 130 42 76 13:35.9 1:05:11.8 1:05:19.4 10:31/M
12 Mary McConville Katy TEXAS 103 46 77 13:37.3 1:05:13.2 1:05:35.6 10:31/M
13 Cynthia Carter Prairie View TEXAS 17 44 79 13:55.7 1:05:31.5 1:05:48.0 10:34/M
14 Rosana Bryant Katy TEXAS 14 45 86 15:53.6 1:07:29.5 1:08:04.7 10:53/M
15 Kirsteen Zietsman Cypress TEXAS 157 47 89 16:59.0 1:08:34.9 1:08:50.8 11:04/M
16 Megan Ferraz Houston TEXAS 44 42 96 18:51.5 1:10:27.3 1:10:51.0 11:22/M
17 Kelly Richardson Houston TEXAS 127 45 97 19:21.7 1:10:57.5 1:11:02.9 11:27/M
18 Ginger Swolley Waller TEXAS 146 47 99 19:58.9 1:11:34.8 1:11:43.6 11:33/M
19 A.jane Cullen Houston TEXAS 27 40 113 26:45.5 1:18:21.3 1:18:38.3 12:38/M
20 Jennifer McKenzie Houston TEXAS 104 40 116 27:28.1 1:19:04.0 1:19:26.7 12:45/M
21 Michelle Lancaster Cypress TEXAS 88 48 125 36:12.5 1:27:48.3 1:28:00.8 14:10/M
22 Jennifer Osborne Cypress TEXAS 113 41 126 36:12.7 1:27:48.5 1:28:01.1 14:10/M
Top

Male 40 to 49

Place Name City Bib No Age Overall Time Back Chip Time Gun Time Pace
1 Steven Gim Houston TX 54 46 8   45:55.8 45:57.5 7:24/M
2 Leonardo Vargas Katy TEXAS 148 41 14 3:48.7 49:44.5 49:48.1 8:01/M
3 Chris Vega Katy TEXAS 48 42 15 4:00.1 49:56.0 50:06.5 8:03/M
4 Kent Hulick Houston TEXAS 71 44 23 6:29.8 52:25.7 52:28.2 8:27/M
5 Miles Roden Houston TEXAS 129 41 40 12:34.8 58:30.7 58:48.2 9:26/M
6 Brian Credeur Houston TEXAS 26 41 55 15:03.1 1:00:59.0 1:01:13.1 9:50/M
7 Oliver Capito Katy TEXAS 16 40 71 18:38.9 1:04:34.8 1:04:53.2 10:25/M
8 Emerson Deo Katy TEXAS 35 44 98 25:16.2 1:11:12.1 1:11:27.1 11:29/M
Top

Female 50 to 59

Place Name City Bib No Age Overall Time Back Chip Time Gun Time Pace
1 Janet Heinlein Houston TEXAS 63 51 88   1:08:11.0 1:08:28.4 11:00/M
2 Rebecca Souza Humble TEXAS 140 50 100 3:24.5 1:11:35.6 1:11:53.2 11:33/M
Top

Male Age 50 to 59

Place Name City Bib No Age Overall Time Back Chip Time Gun Time Pace
1 Mike Hoefer Cypress TEXAS 65 51 37   57:54.0 58:11.7 9:20/M
2 Braden Gardner Katy TEXAS 47 57 68 5:30.6 1:03:24.7 1:03:43.8 10:14/M
3 Art Delossantos Houston TEXAS 31 51 114 20:52.1 1:18:46.1 1:19:41.4 12:42/M
Top

Female 60 to 69

Place Name City Bib No Age Overall Time Back Chip Time Gun Time Pace
1 Susan Donnelly Houston TEXAS 40 62 117   1:19:24.3 1:19:54.5 12:48/M
2 Janet Kendall Cypress TEXAS 80 61 127 8:24.9 1:27:49.3 1:28:01.3 14:10/M
Top

Male 60 to 69

Place Name City Bib No Age Overall Time Back Chip Time Gun Time Pace
1 Amos Avidan Houston TEXAS 2 62 60   1:01:40.0 1:01:47.9 9:57/M